Time;durP1;ratioP1;P1;durP2;ratioP2;P2;SDS_P1;SDS_P2;PMS_P1;PMS_P2;Temp;Humidity;BMP_temperature;BMP_pressure;BME280_temperature;BME280_humidity;BME280_pressure;Samples;Min_cycle;Max_cycle;Signal;HPM_P1;HPM_P2
2021/03/04 00:00:04;;;;;;;52.83;28.50;;;;;;;;;;5013565;28;20964;-82
2021/03/04 00:02:31;;;;;;;51.23;29.07;;;;;;;;;;4997287;28;20445;-83
2021/03/04 00:04:58;;;;;;;50.50;28.90;;;;;;;;;;5017291;28;20462;-80
2021/03/04 00:07:25;;;;;;;55.30;31.00;;;;;;;;;;5017428;28;20571;-83
2021/03/04 00:09:52;;;;;;;54.03;30.80;;;;;;;;;;5037073;28;20965;-78
2021/03/04 00:12:19;;;;;;;51.23;30.60;;;;;;;;;;5039133;28;20955;-77
2021/03/04 00:14:45;;;;;;;46.20;29.23;;;;;;;;;;5038883;28;20958;-75
2021/03/04 00:17:13;;;;;;;49.90;31.30;;;;;;;;;;5038214;28;20444;-78
2021/03/04 00:19:40;;;;;;;49.13;29.17;;;;;;;;;;5025244;28;20445;-78
2021/03/04 00:22:07;;;;;;;50.80;29.93;;;;;;;;;;5032208;28;20452;-79
2021/03/04 00:24:34;;;;;;;58.40;29.13;;;;;;;;;;5038044;28;20680;-78
2021/03/04 00:27:01;;;;;;;49.20;28.93;;;;;;;;;;5038081;28;20449;-79
2021/03/04 00:29:27;;;;;;;56.97;31.20;;;;;;;;;;5039401;28;20467;-77
2021/03/04 00:31:54;;;;;;;47.70;29.93;;;;;;;;;;5042420;28;20471;-77
2021/03/04 00:34:22;;;;;;;53.37;30.50;;;;;;;;;;5043392;28;20496;-76
2021/03/04 00:36:49;;;;;;;54.00;31.10;;;;;;;;;;5043776;28;20448;-76
2021/03/04 00:39:15;;;;;;;55.53;30.90;;;;;;;;;;5043081;28;20445;-79
2021/03/04 00:41:42;;;;;;;57.30;32.70;;;;;;;;;;5029261;28;20452;-76
2021/03/04 00:44:09;;;;;;;66.00;31.33;;;;;;;;;;5035430;28;20824;-77
2021/03/04 00:46:36;;;;;;;52.70;31.10;;;;;;;;;;5023680;28;20444;-79
2021/03/04 00:49:03;;;;;;;54.03;30.60;;;;;;;;;;5039375;28;20451;-84
2021/03/04 00:51:31;;;;;;;62.20;32.70;;;;;;;;;;5038571;28;20453;-79
2021/03/04 00:53:58;;;;;;;56.97;30.67;;;;;;;;;;5038499;28;20484;-84
2021/03/04 00:56:25;;;;;;;49.53;28.40;;;;;;;;;;5039138;28;20451;-82
2021/03/04 00:58:51;;;;;;;51.10;30.77;;;;;;;;;;5038519;28;20540;-85
2021/03/04 01:01:19;;;;;;;56.20;30.30;;;;;;;;;;5038576;28;20491;-80
2021/03/04 01:03:46;;;;;;;47.83;29.90;;;;;;;;;;5009232;28;21051;-78
2021/03/04 01:06:12;;;;;;;49.47;30.00;;;;;;;;;;5020540;28;20459;-82
2021/03/04 01:08:40;;;;;;;54.35;30.10;;;;;;;;;;4999068;28;20449;-78
2021/03/04 01:11:07;;;;;;;49.00;30.20;;;;;;;;;;5015871;28;20231;-78
2021/03/04 01:13:34;;;;;;;56.60;30.90;;;;;;;;;;5014058;28;20470;-81
2021/03/04 01:16:01;;;;;;;58.95;29.40;;;;;;;;;;5021050;28;20981;-84
2021/03/04 01:18:28;;;;;;;54.40;31.30;;;;;;;;;;5005130;28;20202;-83
2021/03/04 01:20:55;;;;;;;52.00;27.87;;;;;;;;;;5033318;28;20449;-83
2021/03/04 01:23:22;;;;;;;52.30;29.10;;;;;;;;;;5032932;28;20480;-78
2021/03/04 01:25:50;;;;;;;46.23;30.27;;;;;;;;;;5033484;28;20452;-83
2021/03/04 01:28:16;;;;;;;51.60;30.57;;;;;;;;;;5033821;28;20469;-81
2021/03/04 01:30:44;;;;;;;48.10;29.30;;;;;;;;;;5035016;28;20449;-80
2021/03/04 01:33:10;;;;;;;49.53;31.60;;;;;;;;;;5035044;28;20468;-80
2021/03/04 01:35:37;;;;;;;58.43;31.73;;;;;;;;;;5035007;28;20487;-82
2021/03/04 01:38:04;;;;;;;56.43;30.07;;;;;;;;;;5026594;28;20492;-81
2021/03/04 01:40:31;;;;;;;56.87;32.17;;;;;;;;;;5020768;28;20450;-81
2021/03/04 01:42:59;;;;;;;61.10;32.70;;;;;;;;;;5012364;28;20504;-80
2021/03/04 01:45:26;;;;;;;54.90;32.40;;;;;;;;;;5012920;28;20454;-76
2021/03/04 01:47:54;;;;;;;54.10;32.17;;;;;;;;;;5012950;28;20456;-86
2021/03/04 01:50:22;;;;;;;52.10;31.67;;;;;;;;;;5007131;28;20452;-77
2021/03/04 01:52:48;;;;;;;59.23;35.10;;;;;;;;;;5034745;28;20475;-77
2021/03/04 01:55:17;;;;;;;59.70;34.00;;;;;;;;;;5033269;28;20989;-79
2021/03/04 01:57:44;;;;;;;59.83;36.43;;;;;;;;;;5034775;28;20446;-81
2021/03/04 02:00:13;;;;;;;55.40;35.40;;;;;;;;;;5018787;28;20445;-83
2021/03/04 02:02:40;;;;;;;53.63;33.43;;;;;;;;;;5002529;28;20443;-83
2021/03/04 02:05:08;;;;;;;58.60;33.60;;;;;;;;;;5011988;28;20451;-77
2021/03/04 02:07:40;;;;;;;66.27;36.50;;;;;;;;;;5012369;28;20456;-81
2021/03/04 02:10:10;;;;;;;60.17;36.53;;;;;;;;;;5012427;28;20461;-80
2021/03/04 02:12:39;;;;;;;59.17;36.57;;;;;;;;;;5021666;28;20465;-80
2021/03/04 02:15:08;;;;;;;61.83;36.07;;;;;;;;;;5033968;28;20961;-76
2021/03/04 02:17:37;;;;;;;60.37;35.80;;;;;;;;;;5034092;28;20522;-78
2021/03/04 02:20:05;;;;;;;58.07;37.33;;;;;;;;;;5034463;28;20536;-82
2021/03/04 02:22:46;;;;;;;65.33;37.33;;;;;;;;;;5025183;28;20846;-77
2021/03/04 02:25:14;;;;;;;63.33;36.60;;;;;;;;;;5022002;28;20516;-79
2021/03/04 02:27:43;;;;;;;61.43;36.07;;;;;;;;;;5014753;28;20507;-79
2021/03/04 02:30:11;;;;;;;71.73;40.57;;;;;;;;;;5033138;28;21595;-81
2021/03/04 02:32:40;;;;;;;63.40;36.60;;;;;;;;;;5036064;28;20453;-77
2021/03/04 02:35:10;;;;;;;65.30;37.67;;;;;;;;;;5039765;28;20493;-80
2021/03/04 02:37:38;;;;;;;59.87;35.27;;;;;;;;;;5037110;28;20528;-76
2021/03/04 02:40:05;;;;;;;56.83;34.50;;;;;;;;;;5033875;28;20457;-81
2021/03/04 02:42:33;;;;;;;60.37;36.60;;;;;;;;;;5033723;28;20456;-77
2021/03/04 02:45:00;;;;;;;59.20;36.10;;;;;;;;;;5023772;28;20932;-82
2021/03/04 02:47:28;;;;;;;54.20;35.67;;;;;;;;;;5022609;28;20438;-77
2021/03/04 02:49:56;;;;;;;61.93;37.10;;;;;;;;;;5033246;28;20464;-78
2021/03/04 02:52:23;;;;;;;61.17;37.73;;;;;;;;;;5032830;28;20811;-85
2021/03/04 02:54:51;;;;;;;63.33;37.43;;;;;;;;;;5032595;28;20485;-81
2021/03/04 02:57:19;;;;;;;58.43;36.60;;;;;;;;;;5032499;28;20462;-83
2021/03/04 02:59:47;;;;;;;61.43;37.43;;;;;;;;;;5033669;28;20450;-77
2021/03/04 03:02:15;;;;;;;56.40;35.17;;;;;;;;;;5033535;28;20508;-79
2021/03/04 03:04:42;;;;;;;58.47;35.17;;;;;;;;;;5033115;28;20462;-78
2021/03/04 03:07:10;;;;;;;60.87;36.27;;;;;;;;;;5023344;28;20462;-79
2021/03/04 03:09:38;;;;;;;61.37;36.23;;;;;;;;;;5018065;28;20439;-81
2021/03/04 03:12:06;;;;;;;59.63;36.73;;;;;;;;;;5010678;28;20493;-76
2021/03/04 03:14:34;;;;;;;59.67;34.57;;;;;;;;;;4993762;28;20496;-82
2021/03/04 03:17:02;;;;;;;59.13;36.37;;;;;;;;;;4994208;28;20478;-85
2021/03/04 03:19:30;;;;;;;59.53;36.73;;;;;;;;;;5021963;28;20744;-77
2021/03/04 03:21:56;;;;;;;52.60;34.23;;;;;;;;;;5032882;28;20450;-90
2021/03/04 03:24:23;;;;;;;60.57;33.40;;;;;;;;;;5033085;28;20458;-81
2021/03/04 03:26:50;;;;;;;53.37;34.17;;;;;;;;;;5033037;28;20485;-79
2021/03/04 03:29:17;;;;;;;61.17;34.87;;;;;;;;;;5023896;28;20458;-81
2021/03/04 03:31:45;;;;;;;61.70;35.67;;;;;;;;;;5020613;28;20461;-77
2021/03/04 03:34:12;;;;;;;62.00;36.53;;;;;;;;;;5031461;28;20478;-79
2021/03/04 03:36:40;;;;;;;59.07;33.03;;;;;;;;;;5030661;28;20449;-80
2021/03/04 03:39:08;;;;;;;49.00;32.50;;;;;;;;;;5031390;28;20540;-79
2021/03/04 03:41:35;;;;;;;59.93;34.63;;;;;;;;;;5031733;28;20484;-79
2021/03/04 03:44:02;;;;;;;61.30;37.40;;;;;;;;;;5032804;28;20468;-80
2021/03/04 03:46:31;;;;;;;60.00;37.50;;;;;;;;;;5032742;28;20475;-88
2021/03/04 03:48:59;;;;;;;60.70;36.50;;;;;;;;;;5015251;28;20460;-83
2021/03/04 03:51:26;;;;;;;58.17;33.30;;;;;;;;;;5024050;28;20458;-76
2021/03/04 03:53:55;;;;;;;60.53;32.43;;;;;;;;;;5017809;28;20464;-80
2021/03/04 03:56:22;;;;;;;54.07;33.63;;;;;;;;;;5010413;28;20481;-80
2021/03/04 03:58:49;;;;;;;54.77;34.10;;;;;;;;;;5010824;28;20811;-82
2021/03/04 04:01:16;;;;;;;55.80;33.90;;;;;;;;;;5010877;28;20861;-81
2021/03/04 04:03:43;;;;;;;52.53;29.97;;;;;;;;;;5020555;28;20477;-79
2021/03/04 04:06:10;;;;;;;58.33;33.50;;;;;;;;;;5032922;28;20532;-81
2021/03/04 04:08:37;;;;;;;58.93;33.67;;;;;;;;;;5032842;28;20445;-81
2021/03/04 04:11:05;;;;;;;58.93;34.03;;;;;;;;;;5032385;28;20889;-84
2021/03/04 04:13:32;;;;;;;57.10;33.47;;;;;;;;;;5023614;28;20470;-80
2021/03/04 04:15:58;;;;;;;51.90;32.70;;;;;;;;;;5017790;28;20471;-82
2021/03/04 04:18:25;;;;;;;60.53;34.40;;;;;;;;;;5010354;28;20988;-82
2021/03/04 04:20:52;;;;;;;58.42;32.97;;;;;;;;;;5010794;28;20450;-82
2021/03/04 04:23:19;;;;;;;54.30;30.70;;;;;;;;;;5010700;28;20702;-82
2021/03/04 04:25:48;;;;;;;52.00;31.57;;;;;;;;;;5019433;28;20465;-77
2021/03/04 04:28:16;;;;;;;58.10;33.10;;;;;;;;;;5032150;28;20839;-78
2021/03/04 04:30:43;;;;;;;55.13;32.20;;;;;;;;;;5032189;28;20806;-83
2021/03/04 04:33:10;;;;;;;50.00;32.20;;;;;;;;;;5032205;28;20475;-79
2021/03/04 04:35:37;;;;;;;55.50;32.80;;;;;;;;;;5023691;28;20474;-81
2021/03/04 04:38:04;;;;;;;57.43;35.20;;;;;;;;;;5017382;28;20943;-78
2021/03/04 04:40:31;;;;;;;49.30;31.17;;;;;;;;;;5009816;28;20879;-79
2021/03/04 04:42:57;;;;;;;58.10;34.13;;;;;;;;;;5010139;28;20455;-78
2021/03/04 04:45:25;;;;;;;58.97;32.60;;;;;;;;;;5010396;28;20445;-80
2021/03/04 04:47:52;;;;;;;50.37;30.87;;;;;;;;;;5019675;28;20941;-77
2021/03/04 04:50:19;;;;;;;52.70;31.00;;;;;;;;;;5035920;28;20969;-82
2021/03/04 04:52:46;;;;;;;52.80;33.47;;;;;;;;;;5036219;28;20464;-84
2021/03/04 04:55:13;;;;;;;58.20;30.97;;;;;;;;;;5035845;28;20493;-79
2021/03/04 04:57:40;;;;;;;55.60;32.83;;;;;;;;;;5027729;28;20437;-79
2021/03/04 05:00:08;;;;;;;51.80;31.23;;;;;;;;;;5021812;28;20910;-78
2021/03/04 05:02:36;;;;;;;53.33;31.03;;;;;;;;;;5015825;28;20463;-84
2021/03/04 05:05:03;;;;;;;53.43;32.23;;;;;;;;;;5033307;28;20873;-84
2021/03/04 05:07:30;;;;;;;51.73;31.00;;;;;;;;;;5033927;28;20911;-84
2021/03/04 05:09:57;;;;;;;51.73;30.00;;;;;;;;;;5033742;28;20563;-80
2021/03/04 05:12:24;;;;;;;49.63;32.40;;;;;;;;;;5035204;28;20475;-76
2021/03/04 05:14:51;;;;;;;46.27;31.47;;;;;;;;;;5035282;28;20481;-79
2021/03/04 05:17:18;;;;;;;48.80;30.33;;;;;;;;;;5035185;28;20484;-81
2021/03/04 05:19:46;;;;;;;54.43;30.90;;;;;;;;;;5027184;28;20441;-84
2021/03/04 05:22:13;;;;;;;50.80;30.87;;;;;;;;;;5020727;28;20445;-79
2021/03/04 05:24:39;;;;;;;47.67;28.17;;;;;;;;;;5012947;28;20985;-81
2021/03/04 05:27:07;;;;;;;45.30;29.20;;;;;;;;;;5013003;28;20449;-78
2021/03/04 05:29:34;;;;;;;46.00;28.37;;;;;;;;;;5013263;28;20480;-81
2021/03/04 05:32:00;;;;;;;51.83;29.60;;;;;;;;;;5020821;28;20937;-77
2021/03/04 05:34:27;;;;;;;46.90;29.00;;;;;;;;;;5034847;28;20480;-79
2021/03/04 05:36:55;;;;;;;48.33;29.70;;;;;;;;;;5035124;28;20451;-84
2021/03/04 05:39:22;;;;;;;49.43;30.57;;;;;;;;;;5034688;28;20453;-80
2021/03/04 05:41:49;;;;;;;41.33;28.33;;;;;;;;;;5028362;28;20448;-80
2021/03/04 05:44:16;;;;;;;57.27;34.57;;;;;;;;;;5020613;28;20507;-79
2021/03/04 05:46:46;;;;;;;56.00;35.50;;;;;;;;;;5031982;28;20461;-80
2021/03/04 05:49:14;;;;;;;57.87;35.63;;;;;;;;;;5032329;28;20457;-80
2021/03/04 05:51:42;;;;;;;51.87;32.70;;;;;;;;;;5015539;28;20453;-78
2021/03/04 05:54:12;;;;;;;56.00;33.07;;;;;;;;;;5015511;28;20485;-77
2021/03/04 05:56:41;;;;;;;63.13;34.97;;;;;;;;;;5034703;28;20481;-79
2021/03/04 05:59:08;;;;;;;53.97;30.97;;;;;;;;;;5034416;28;20457;-77
2021/03/04 06:01:35;;;;;;;57.07;34.90;;;;;;;;;;5016667;28;20453;-81
2021/03/04 06:04:02;;;;;;;55.47;32.67;;;;;;;;;;5027187;28;20477;-80
2021/03/04 06:06:29;;;;;;;64.10;33.83;;;;;;;;;;5020203;28;20443;-80
2021/03/04 06:08:56;;;;;;;56.57;33.80;;;;;;;;;;5012223;28;20449;-78
2021/03/04 06:11:24;;;;;;;54.97;35.90;;;;;;;;;;5012157;28;20822;-76
2021/03/04 06:13:51;;;;;;;63.30;34.90;;;;;;;;;;4995219;28;20882;-76
2021/03/04 06:16:18;;;;;;;58.40;35.03;;;;;;;;;;5003973;28;20489;-78
2021/03/04 06:18:45;;;;;;;58.50;34.97;;;;;;;;;;5034459;28;20478;-83
2021/03/04 06:21:20;;;;;;;62.13;36.07;;;;;;;;;;5034169;28;20289;-81
2021/03/04 06:23:46;;;;;;;63.53;37.00;;;;;;;;;;5034091;28;20469;-79
2021/03/04 06:26:24;;;;;;;62.53;38.40;;;;;;;;;;5027357;28;20808;-81
2021/03/04 06:28:51;;;;;;;66.30;38.77;;;;;;;;;;5020376;28;20453;-86
2021/03/04 06:31:19;;;;;;;67.63;37.60;;;;;;;;;;5031966;28;20451;-79
2021/03/04 06:33:45;;;;;;;71.03;38.93;;;;;;;;;;5032465;28;20469;-79
2021/03/04 06:36:13;;;;;;;66.13;36.20;;;;;;;;;;5032375;28;20481;-77
2021/03/04 06:38:40;;;;;;;58.63;36.13;;;;;;;;;;5014881;28;21115;-80
2021/03/04 06:41:18;;;;;;;56.67;35.10;;;;;;;;;;5022640;28;20533;-77
2021/03/04 06:43:46;;;;;;;59.50;34.90;;;;;;;;;;5016545;28;20465;-80
2021/03/04 06:46:13;;;;;;;58.53;34.07;;;;;;;;;;5011754;28;20441;-77
2021/03/04 06:48:51;;;;;;;60.00;36.77;;;;;;;;;;5017819;28;20446;-76
2021/03/04 06:51:18;;;;;;;50.07;31.93;;;;;;;;;;5020985;28;20500;-79
2021/03/04 06:53:50;;;;;;;64.20;33.97;;;;;;;;;;5027250;28;20484;-78
2021/03/04 06:56:17;;;;;;;53.83;32.07;;;;;;;;;;5033198;28;20851;-79
2021/03/04 06:58:44;;;;;;;52.07;32.93;;;;;;;;;;5033680;28;20449;-78
2021/03/04 07:01:12;;;;;;;62.20;33.40;;;;;;;;;;5033188;28;20949;-78
2021/03/04 07:03:40;;;;;;;51.87;32.20;;;;;;;;;;5005025;28;20470;-78
2021/03/04 07:06:08;;;;;;;52.13;32.03;;;;;;;;;;5022365;28;20454;-77
2021/03/04 07:08:36;;;;;;;59.83;33.27;;;;;;;;;;5013732;28;20446;-75
2021/03/04 07:11:04;;;;;;;52.33;32.77;;;;;;;;;;5030239;28;20481;-77
2021/03/04 07:13:31;;;;;;;60.73;37.60;;;;;;;;;;5030404;28;20480;-77
2021/03/04 07:16:00;;;;;;;76.53;40.53;;;;;;;;;;5032300;28;20490;-78
2021/03/04 07:18:29;;;;;;;75.70;44.00;;;;;;;;;;5033418;28;20445;-76
2021/03/04 07:20:56;;;;;;;66.97;42.07;;;;;;;;;;5033016;28;20449;-78
2021/03/04 07:23:23;;;;;;;77.93;44.27;;;;;;;;;;5033028;28;20834;-81
2021/03/04 07:25:51;;;;;;;79.43;45.47;;;;;;;;;;5023248;28;21068;-78
2021/03/04 07:28:18;;;;;;;84.27;49.03;;;;;;;;;;5017978;28;20456;-76
2021/03/04 07:30:45;;;;;;;87.77;52.47;;;;;;;;;;5010570;28;20454;-77
2021/03/04 07:33:12;;;;;;;88.60;50.93;;;;;;;;;;5010884;28;20480;-80
2021/03/04 07:35:39;;;;;;;84.40;49.80;;;;;;;;;;5017519;28;20978;-80
2021/03/04 07:38:06;;;;;;;75.40;48.10;;;;;;;;;;5031459;28;20469;-76
2021/03/04 07:40:34;;;;;;;86.90;50.60;;;;;;;;;;5032487;28;20455;-79
2021/03/04 07:43:03;;;;;;;82.70;49.80;;;;;;;;;;5032809;28;20448;-77
2021/03/04 07:45:30;;;;;;;81.13;47.97;;;;;;;;;;5032423;28;20441;-77
2021/03/04 07:48:07;;;;;;;89.63;48.43;;;;;;;;;;5026276;28;20444;-80
2021/03/04 07:50:34;;;;;;;88.07;47.97;;;;;;;;;;5017926;28;20525;-76
2021/03/04 07:53:05;;;;;;;81.63;48.60;;;;;;;;;;5010059;28;20454;-77
2021/03/04 07:55:38;;;;;;;78.37;47.33;;;;;;;;;;5010220;28;20481;-77
2021/03/04 07:58:14;;;;;;;76.70;46.30;;;;;;;;;;5010559;28;20536;-77
2021/03/04 08:00:41;;;;;;;73.37;46.17;;;;;;;;;;5019723;28;20449;-76
2021/03/04 08:03:08;;;;;;;76.33;44.50;;;;;;;;;;5021501;28;20464;-76
2021/03/04 08:05:36;;;;;;;79.57;47.60;;;;;;;;;;5016330;28;20448;-77
2021/03/04 08:08:11;;;;;;;74.30;45.00;;;;;;;;;;4993162;28;20476;-77
2021/03/04 08:10:49;;;;;;;81.67;43.27;;;;;;;;;;5010600;28;20477;-78
2021/03/04 08:13:16;;;;;;;75.17;44.67;;;;;;;;;;5010668;28;20473;-77
2021/03/04 08:15:44;;;;;;;67.07;41.70;;;;;;;;;;5025526;28;20957;-78
2021/03/04 08:18:19;;;;;;;64.03;43.40;;;;;;;;;;5032457;28;20568;-77
2021/03/04 08:20:45;;;;;;;70.33;43.80;;;;;;;;;;5015050;28;20456;-78
2021/03/04 08:23:15;;;;;;;71.80;43.67;;;;;;;;;;5015863;28;20473;-75
2021/03/04 08:25:42;;;;;;;68.93;42.63;;;;;;;;;;5025598;28;20948;-77
2021/03/04 08:28:09;;;;;;;70.83;45.97;;;;;;;;;;5024972;28;20476;-77
2021/03/04 08:30:38;;;;;;;73.53;46.80;;;;;;;;;;5033595;28;20815;-76
2021/03/04 08:33:06;;;;;;;68.70;43.43;;;;;;;;;;5034034;28;20818;-78
2021/03/04 08:35:35;;;;;;;65.20;43.07;;;;;;;;;;5016621;28;20491;-76
2021/03/04 08:38:03;;;;;;;64.67;42.93;;;;;;;;;;5018053;28;20465;-75
2021/03/04 08:40:38;;;;;;;60.73;42.67;;;;;;;;;;5018779;28;20455;-78
2021/03/04 08:43:08;;;;;;;61.93;41.10;;;;;;;;;;5036051;28;20493;-76
2021/03/04 08:45:35;;;;;;;62.50;42.20;;;;;;;;;;5018834;28;20446;-77
2021/03/04 08:48:04;;;;;;;62.97;40.73;;;;;;;;;;5027921;28;20533;-77
2021/03/04 08:50:32;;;;;;;56.80;38.57;;;;;;;;;;5022487;28;20800;-79
2021/03/04 08:53:00;;;;;;;66.53;40.60;;;;;;;;;;5033126;28;20445;-77
2021/03/04 08:55:27;;;;;;;63.30;42.40;;;;;;;;;;5034644;28;20484;-77
2021/03/04 08:58:04;;;;;;;54.97;36.97;;;;;;;;;;5034101;28;20457;-76
2021/03/04 09:00:31;;;;;;;56.87;39.17;;;;;;;;;;5034293;28;20437;-78
2021/03/04 09:03:07;;;;;;;59.87;38.20;;;;;;;;;;5035440;28;20445;-78
2021/03/04 09:05:33;;;;;;;56.40;37.50;;;;;;;;;;5022432;28;20533;-78
2021/03/04 09:08:07;;;;;;;59.93;39.17;;;;;;;;;;5015637;28;20448;-77
2021/03/04 09:10:39;;;;;;;58.40;39.10;;;;;;;;;;5019366;28;20484;-74
2021/03/04 09:13:07;;;;;;;57.37;38.40;;;;;;;;;;5022506;28;20454;-77
2021/03/04 09:15:34;;;;;;;58.27;39.43;;;;;;;;;;5027418;28;20493;-74
2021/03/04 09:18:06;;;;;;;52.43;34.60;;;;;;;;;;5019968;28;20536;-77
2021/03/04 09:20:33;;;;;;;53.33;35.10;;;;;;;;;;5032973;28;20452;-76
2021/03/04 09:23:00;;;;;;;53.87;35.60;;;;;;;;;;5033623;28;20974;-75
2021/03/04 09:25:27;;;;;;;60.80;36.23;;;;;;;;;;5022467;28;20427;-77
2021/03/04 09:27:54;;;;;;;61.03;37.67;;;;;;;;;;5017952;28;20447;-76
2021/03/04 09:30:25;;;;;;;56.47;37.50;;;;;;;;;;5013806;28;20458;-78
2021/03/04 09:32:52;;;;;;;63.60;36.13;;;;;;;;;;5013782;28;20449;-76
2021/03/04 09:35:19;;;;;;;58.37;36.17;;;;;;;;;;5013329;28;20488;-77
2021/03/04 09:37:46;;;;;;;57.80;34.90;;;;;;;;;;5030154;28;20466;-77
2021/03/04 09:40:22;;;;;;;57.33;35.53;;;;;;;;;;5035106;28;20552;-77
2021/03/04 09:42:49;;;;;;;58.13;35.17;;;;;;;;;;4998071;28;20829;-77
2021/03/04 09:45:16;;;;;;;64.93;37.33;;;;;;;;;;5015735;28;20477;-78
2021/03/04 09:47:44;;;;;;;64.73;37.13;;;;;;;;;;5020015;28;21515;-78
2021/03/04 09:50:26;;;;;;;89.83;42.93;;;;;;;;;;5023688;28;20487;-76
2021/03/04 09:53:01;;;;;;;69.90;39.10;;;;;;;;;;5018568;28;20446;-84
2021/03/04 09:55:28;;;;;;;58.63;36.10;;;;;;;;;;5033286;28;20477;-81
2021/03/04 09:57:54;;;;;;;69.70;39.50;;;;;;;;;;5032507;28;20464;-80
2021/03/04 10:00:24;;;;;;;70.77;38.57;;;;;;;;;;5034195;28;20557;-77
2021/03/04 10:02:52;;;;;;;60.30;37.00;;;;;;;;;;5034903;28;20445;-76
2021/03/04 10:05:20;;;;;;;64.33;39.80;;;;;;;;;;5034128;28;20916;-76
2021/03/04 10:07:47;;;;;;;74.53;40.97;;;;;;;;;;5034693;28;20481;-75
2021/03/04 10:10:15;;;;;;;66.93;38.33;;;;;;;;;;5024847;28;20893;-77
2021/03/04 10:12:49;;;;;;;65.73;37.10;;;;;;;;;;5022588;28;20503;-78
2021/03/04 10:15:32;;;;;;;61.90;38.33;;;;;;;;;;5031979;28;20585;-85
2021/03/04 10:18:00;;;;;;;67.50;38.80;;;;;;;;;;5017294;28;20445;-84
2021/03/04 10:20:27;;;;;;;58.63;36.77;;;;;;;;;;5014726;28;20525;-75
2021/03/04 10:22:54;;;;;;;58.20;33.90;;;;;;;;;;5025208;28;20827;-76
2021/03/04 10:25:22;;;;;;;59.87;35.03;;;;;;;;;;5021231;28;20508;-77
2021/03/04 10:27:49;;;;;;;58.63;34.30;;;;;;;;;;5017435;28;20486;-76
2021/03/04 10:30:17;;;;;;;57.90;34.50;;;;;;;;;;5032835;28;20481;-79
2021/03/04 10:32:44;;;;;;;55.33;33.97;;;;;;;;;;5032262;28;20894;-82
2021/03/04 10:35:12;;;;;;;57.00;33.30;;;;;;;;;;5032644;28;20846;-78
2021/03/04 10:37:39;;;;;;;52.90;33.00;;;;;;;;;;5033230;28;20474;-76
2021/03/04 10:40:07;;;;;;;52.93;31.93;;;;;;;;;;5033948;28;20450;-78
2021/03/04 10:42:35;;;;;;;55.13;33.00;;;;;;;;;;5033256;28;20449;-76
2021/03/04 10:45:01;;;;;;;49.57;31.17;;;;;;;;;;5015944;28;20550;-77
2021/03/04 10:47:28;;;;;;;41.30;28.23;;;;;;;;;;5020603;28;20468;-79
2021/03/04 10:49:55;;;;;;;38.73;24.73;;;;;;;;;;4998743;28;20457;-77
2021/03/04 10:52:25;;;;;;;34.40;23.30;;;;;;;;;;5011891;28;20676;-80
2021/03/04 10:54:52;;;;;;;35.87;23.87;;;;;;;;;;5011609;28;20469;-80
2021/03/04 10:57:19;;;;;;;30.67;21.80;;;;;;;;;;5011887;28;20529;-81
2021/03/04 10:59:46;;;;;;;32.10;23.13;;;;;;;;;;5020094;28;20998;-78
2021/03/04 11:02:13;;;;;;;34.37;24.40;;;;;;;;;;5033261;28;20812;-75
2021/03/04 11:04:39;;;;;;;34.27;24.33;;;;;;;;;;5032956;28;20464;-78
2021/03/04 11:07:06;;;;;;;39.47;26.40;;;;;;;;;;5033276;28;20452;-80
2021/03/04 11:09:34;;;;;;;34.70;23.30;;;;;;;;;;5022548;28;20546;-76
2021/03/04 11:12:01;;;;;;;35.50;22.70;;;;;;;;;;5017072;28;20481;-78
2021/03/04 11:14:28;;;;;;;31.90;23.00;;;;;;;;;;5011037;28;20845;-80
2021/03/04 11:16:55;;;;;;;31.27;21.00;;;;;;;;;;5010981;28;20528;-78
2021/03/04 11:19:22;;;;;;;31.30;20.60;;;;;;;;;;5020851;28;20461;-77
2021/03/04 11:21:49;;;;;;;27.07;19.33;;;;;;;;;;5031664;28;20522;-76
2021/03/04 11:24:16;;;;;;;29.20;19.87;;;;;;;;;;5007490;28;21043;-75
2021/03/04 11:26:44;;;;;;;29.67;19.87;;;;;;;;;;5019696;28;20440;-80
2021/03/04 11:29:11;;;;;;;29.93;19.43;;;;;;;;;;5029738;28;20511;-78
2021/03/04 11:31:38;;;;;;;29.63;20.17;;;;;;;;;;5005797;28;20534;-77
2021/03/04 11:34:05;;;;;;;30.93;19.47;;;;;;;;;;5011212;28;20469;-75
2021/03/04 11:36:33;;;;;;;29.00;19.80;;;;;;;;;;5012342;28;20484;-78
2021/03/04 11:39:01;;;;;;;30.10;20.33;;;;;;;;;;5032793;28;20450;-78
2021/03/04 11:41:28;;;;;;;29.00;19.83;;;;;;;;;;5032508;28;20950;-77
2021/03/04 11:43:56;;;;;;;36.37;23.40;;;;;;;;;;5029094;28;20870;-77
2021/03/04 11:46:23;;;;;;;31.83;21.80;;;;;;;;;;5009515;28;20530;-76
2021/03/04 11:48:50;;;;;;;40.23;25.87;;;;;;;;;;5001813;28;21023;-77
2021/03/04 11:51:16;;;;;;;38.10;24.30;;;;;;;;;;5029002;28;20446;-80
2021/03/04 11:53:43;;;;;;;37.10;24.97;;;;;;;;;;5028804;28;20470;-75
2021/03/04 11:56:10;;;;;;;39.20;22.87;;;;;;;;;;5010579;28;20570;-78
2021/03/04 11:58:37;;;;;;;41.60;26.80;;;;;;;;;;5018029;28;20458;-75
2021/03/04 12:01:05;;;;;;;43.73;28.13;;;;;;;;;;5015195;28;20547;-75
2021/03/04 12:03:32;;;;;;;46.10;28.47;;;;;;;;;;5032436;28;20466;-83
2021/03/04 12:05:59;;;;;;;45.40;27.80;;;;;;;;;;5032481;28;20568;-78
2021/03/04 12:08:26;;;;;;;44.73;28.27;;;;;;;;;;5028707;28;20936;-78
2021/03/04 12:10:53;;;;;;;59.70;33.73;;;;;;;;;;5018003;28;20473;-80
2021/03/04 12:13:19;;;;;;;63.00;35.87;;;;;;;;;;5022391;28;20462;-77
2021/03/04 12:15:49;;;;;;;68.63;39.50;;;;;;;;;;5030090;28;20485;-75
2021/03/04 12:18:17;;;;;;;66.50;40.20;;;;;;;;;;5023851;28;20448;-76
2021/03/04 12:20:43;;;;;;;63.73;39.83;;;;;;;;;;5011357;28;20446;-80
2021/03/04 12:23:10;;;;;;;68.77;41.10;;;;;;;;;;5032141;28;20561;-79
2021/03/04 12:25:37;;;;;;;73.23;40.80;;;;;;;;;;5031981;28;20448;-75
2021/03/04 12:28:04;;;;;;;71.30;40.70;;;;;;;;;;5032145;28;20786;-76
2021/03/04 12:30:31;;;;;;;58.27;36.53;;;;;;;;;;5031550;28;20541;-73
2021/03/04 12:32:58;;;;;;;51.90;31.43;;;;;;;;;;5018313;28;21013;-80
2021/03/04 12:35:25;;;;;;;42.60;29.40;;;;;;;;;;5023879;28;21054;-79
2021/03/04 12:37:52;;;;;;;44.40;27.60;;;;;;;;;;5027315;28;20567;-78
2021/03/04 12:40:19;;;;;;;38.93;26.77;;;;;;;;;;5009894;28;20500;-79
2021/03/04 12:42:46;;;;;;;46.73;29.10;;;;;;;;;;5010599;28;20512;-80
2021/03/04 12:45:13;;;;;;;51.30;33.20;;;;;;;;;;5030717;28;20466;-81
2021/03/04 12:47:40;;;;;;;51.47;30.80;;;;;;;;;;5032075;28;20780;-78
2021/03/04 12:50:08;;;;;;;58.13;33.00;;;;;;;;;;5031793;28;20464;-76
2021/03/04 12:52:36;;;;;;;62.03;35.27;;;;;;;;;;5031520;28;20450;-77
2021/03/04 12:55:03;;;;;;;68.90;39.17;;;;;;;;;;5020113;28;20541;-77
2021/03/04 12:57:30;;;;;;;68.87;40.40;;;;;;;;;;5017597;28;20939;-82
2021/03/04 12:59:56;;;;;;;70.83;39.77;;;;;;;;;;5027159;28;20532;-79
2021/03/04 13:02:23;;;;;;;63.20;35.10;;;;;;;;;;5026521;28;20450;-76
2021/03/04 13:04:50;;;;;;;60.33;33.93;;;;;;;;;;5026461;28;20482;-79
2021/03/04 13:07:17;;;;;;;58.30;32.00;;;;;;;;;;5026966;28;20450;-80
2021/03/04 13:09:45;;;;;;;51.30;31.23;;;;;;;;;;5016327;28;20503;-78
2021/03/04 13:12:12;;;;;;;49.90;28.13;;;;;;;;;;5013558;28;20521;-78
2021/03/04 13:14:40;;;;;;;45.03;26.03;;;;;;;;;;5011003;28;20458;-79
2021/03/04 13:17:07;;;;;;;48.43;28.20;;;;;;;;;;5028617;28;20496;-76
2021/03/04 13:19:34;;;;;;;40.97;26.07;;;;;;;;;;5030172;28;20456;-76
2021/03/04 13:22:01;;;;;;;40.77;25.10;;;;;;;;;;5030299;28;20465;-77
2021/03/04 13:24:27;;;;;;;40.27;25.10;;;;;;;;;;5031579;28;20473;-78
2021/03/04 13:26:55;;;;;;;39.53;23.70;;;;;;;;;;5031900;28;20488;-80
2021/03/04 13:29:22;;;;;;;29.67;21.20;;;;;;;;;;5031598;28;20452;-78
2021/03/04 13:31:49;;;;;;;35.60;24.10;;;;;;;;;;5020860;28;20434;-76
2021/03/04 13:34:16;;;;;;;34.57;22.60;;;;;;;;;;5019553;28;20869;-77
2021/03/04 13:36:43;;;;;;;28.07;20.90;;;;;;;;;;5029740;28;20936;-78
2021/03/04 13:39:10;;;;;;;23.93;15.70;;;;;;;;;;5029526;28;20453;-78
2021/03/04 13:41:37;;;;;;;22.00;15.07;;;;;;;;;;5012418;28;20711;-76
2021/03/04 13:44:04;;;;;;;22.50;15.02;;;;;;;;;;5030836;28;20571;-78
2021/03/04 13:46:31;;;;;;;17.03;12.20;;;;;;;;;;5034405;28;20552;-79
2021/03/04 13:48:58;;;;;;;19.85;12.10;;;;;;;;;;5034304;28;20452;-76
2021/03/04 13:51:25;;;;;;;16.80;12.77;;;;;;;;;;5034405;28;20205;-77
2021/03/04 13:53:52;;;;;;;15.95;10.95;;;;;;;;;;5025958;28;21114;-77
2021/03/04 13:56:19;;;;;;;16.70;12.05;;;;;;;;;;5020239;28;20213;-78
2021/03/04 13:58:45;;;;;;;18.52;11.60;;;;;;;;;;5032400;28;20231;-78
2021/03/04 14:01:14;;;;;;;17.92;11.85;;;;;;;;;;5032322;28;20203;-76
2021/03/04 14:03:40;;;;;;;22.40;13.68;;;;;;;;;;5032286;28;20271;-77
2021/03/04 14:06:07;;;;;;;24.42;13.82;;;;;;;;;;5033245;28;20621;-77
2021/03/04 14:08:34;;;;;;;25.88;15.23;;;;;;;;;;5034505;28;20201;-78
2021/03/04 14:11:01;;;;;;;25.02;15.13;;;;;;;;;;5034363;28;20569;-79
2021/03/04 14:13:28;;;;;;;30.00;15.07;;;;;;;;;;5034137;28;20227;-77
2021/03/04 14:15:55;;;;;;;22.77;13.88;;;;;;;;;;5030396;28;20313;-78
2021/03/04 14:18:22;;;;;;;22.25;13.80;;;;;;;;;;5020109;28;20206;-76